Date,TemperatureHighF,TemperatureAvgF,TemperatureLowF,DewpointHighF,DewpointAvgF,DewpointLowF,HumidityHigh,HumidityAvg,HumidityLow,PressureMaxIn,PressureMinIn,WindSpeedMaxMPH,WindSpeedAvgMPH,GustSpeedMaxMPH,PrecipitationSumIn
2013-1-1,17.0,11.1,2.0,11.0,5.0,-2.0,89,77,62,0.00,40.00,21,10,28,0.00
2013-1-2,17.0,10.2,2.0,10.0,5.7,-3.0,88,82,73,0.00,40.00,17,11,22,0.00
2013-1-3,15.0,2.2,-9.0,5.0,-3.4,-12.0,93,78,61,0.00,40.00,6,2,11,0.00
2013-1-4,18.0,1.9,-10.0,4.0,-4.4,-14.0,89,76,56,0.00,40.00,7,2,9,0.00
2013-1-5,26.0,5.3,-11.0,8.0,-2.6,-16.0,92,71,43,0.00,40.00,14,3,19,0.00
2013-1-6,37.0,15.3,-5.0,9.0,1.0,-10.0,90,59,24,0.00,40.00,18,6,29,0.00
2013-1-7,35.0,24.8,12.0,17.0,7.8,1.0,68,49,33,0.00,40.00,29,12,43,0.00
2013-1-8,32.0,28.6,25.0,24.0,21.7,18.0,82,75,66,0.00,40.00,32,20,41,0.00
2013-1-9,44.0,31.4,18.0,24.0,17.9,11.0,87,60,29,0.00,40.00,23,6,30,0.00
2013-1-10,42.0,37.2,32.0,22.0,14.5,10.0,62,40,29,0.00,40.00,32,17,45,0.00
2013-1-11,33.0,15.3,1.0,22.0,9.7,-3.0,95,79,54,0.00,40.00,22,11,32,0.12
2013-1-12,7.0,0.2,-6.0,-1.0,-5.4,-9.0,87,77,62,0.00,40.00,11,5,15,0.00
2013-1-13,4.0,-4.1,-12.0,-3.0,-8.4,-16.0,88,81,66,0.00,40.00,9,4,12,0.00
2013-1-14,2.0,-6.7,-16.0,-5.0,-12.6,-21.0,88,75,61,0.00,40.00,17,6,26,0.00
2013-1-15,18.0,9.5,-1.0,9.0,1.3,-9.0,76,69,62,0.00,40.00,16,9,27,0.00
2013-1-16,27.0,18.1,8.0,13.0,9.5,5.0,87,69,54,0.00,40.00,19,8,25,0.00
2013-1-17,36.0,16.1,0.0,14.0,6.2,-3.0,93,68,35,0.00,40.00,9,3,17,0.00
2013-1-18,37.0,27.9,16.0,12.0,8.9,5.0,61,45,32,0.00,40.00,26,11,37,0.00
2013-1-19,40.0,29.8,15.0,12.0,8.8,6.0,67,42,27,0.00,40.00,22,9,30,0.00
2013-1-20,37.0,26.8,17.0,11.0,7.6,5.0,61,45,27,0.00,40.00,21,9,29,0.00
2013-1-21,39.0,30.3,17.0,12.0,10.0,7.0,66,44,31,0.00,40.00,27,15,37,0.00
2013-1-22,44.0,35.3,29.0,10.0,5.6,2.0,40,29,17,0.00,40.00,27,14,37,0.00
2013-1-23,49.0,40.7,33.0,9.0,5.0,0.0,30,23,15,0.00,40.00,24,16,38,0.00
2013-1-24,42.0,37.2,30.0,30.0,18.1,7.0,80,48,29,0.00,40.00,19,13,29,0.00
2013-1-25,41.0,36.6,32.0,30.0,27.8,25.0,81,71,53,0.00,40.00,21,12,29,0.00
2013-1-26,45.0,37.9,33.0,33.0,29.7,27.0,95,73,51,0.00,40.00,21,10,29,0.02
2013-1-27,44.0,36.2,33.0,33.0,30.4,25.0,99,80,58,0.00,40.00,23,12,35,0.07
2013-1-28,34.0,20.5,10.0,32.0,17.5,4.0,100,88,71,0.00,40.00,17,10,23,0.25
2013-1-29,18.0,12.3,6.0,14.0,7.1,2.0,91,79,69,0.00,40.00,16,10,22,0.00
2013-1-30,31.0,20.9,4.0,22.0,14.8,1.0,91,78,62,0.00,40.00,32,21,41,0.00
2013-1-31,34.0,29.5,22.0,24.0,22.0,18.0,86,74,63,0.00,40.00,26,20,36,0.00
2013-2-1,35.0,29.8,26.0,28.0,23.0,19.0,95,76,65,0.00,40.00,32,19,42,0.04
2013-2-2,38.0,29.6,22.0,21.0,17.7,14.0,82,62,44,0.00,40.00,18,11,26,0.00
2013-2-3,37.0,30.4,23.0,15.0,12.8,9.0,64,48,35,0.00,40.00,19,9,29,0.00
2013-2-4,39.0,30.8,23.0,21.0,15.8,11.0,61,54,44,0.00,40.00,30,17,40,0.00
2013-2-5,44.0,36.0,27.0,20.0,17.1,14.0,62,47,31,0.00,40.00,24,14,32,0.00
2013-2-6,40.0,33.9,22.0,22.0,17.1,7.0,75,51,26,0.00,40.00,19,11,27,0.00
2013-2-7,38.0,26.0,11.0,15.0,8.8,0.0,89,52,26,0.00,40.00,15,8,24,0.00
2013-2-8,46.0,32.7,22.0,29.0,17.2,5.0,100,56,25,0.00,40.00,18,5,24,0.00
2013-2-9,28.0,22.8,19.0,27.0,22.4,18.0,100,98,95,0.00,40.00,12,5,16,0.29
2013-2-10,22.0,15.2,-5.0,19.0,12.4,-8.0,98,88,74,0.00,40.00,9,5,12,0.03
2013-2-11,20.0,0.5,-16.0,11.0,-3.4,-20.0,93,83,59,0.00,40.00,7,2,11,0.00
2013-2-12,20.0,11.4,-7.0,15.0,5.7,-10.0,91,78,67,0.00,40.00,22,10,29,0.00
2013-2-13,30.0,24.7,18.0,24.0,19.4,14.0,83,80,75,0.00,40.00,28,21,39,0.00
2013-2-14,28.0,21.6,11.0,22.0,16.8,10.0,98,82,55,0.00,40.00,22,9,29,0.03
2013-2-15,28.0,22.0,13.0,18.0,15.3,10.0,93,76,59,0.00,40.00,24,13,32,0.00
2013-2-16,38.0,30.6,24.0,22.0,17.6,14.0,70,58,49,0.00,40.00,24,17,32,0.00
2013-2-17,36.0,30.4,21.0,21.0,15.1,10.0,95,54,40,0.00,40.00,26,16,40,0.00
2013-2-18,26.0,19.0,13.0,20.0,11.6,2.0,95,74,46,0.00,40.00,20,12,28,0.07
2013-2-19,40.0,24.9,9.0,14.0,6.7,1.0,72,48,26,0.00,40.00,21,7,29,0.00
2013-2-20,37.0,24.0,13.0,18.0,12.8,8.0,88,64,32,0.00,40.00,9,3,12,0.00
2013-2-21,24.0,20.4,18.0,18.0,15.8,13.0,94,82,62,0.00,40.00,11,7,17,0.02
2013-2-22,26.0,19.5,10.0,18.0,11.5,6.0,85,71,52,0.00,40.00,27,16,37,0.03
2013-2-23,29.0,22.7,17.0,22.0,15.6,10.0,92,74,61,0.00,40.00,24,18,39,0.01
2013-2-24,23.0,17.6,4.0,18.0,14.2,1.0,97,87,72,0.00,40.00,19,10,27,0.28
2013-2-25,26.0,14.7,-4.0,13.0,5.1,-7.0,95,68,46,0.00,40.00,21,8,30,0.00
2013-2-26,25.0,17.2,5.0,19.0,12.5,3.0,93,82,65,0.00,40.00,21,9,28,0.11
2013-2-27,22.0,13.2,0.0,11.0,6.2,-3.0,95,74,57,0.00,40.00,20,9,27,0.00
2013-2-28,29.0,21.8,9.0,20.0,11.8,4.0,78,66,55,0.00,40.00,24,14,32,0.00
2013-3-1,40.0,30.8,22.0,29.0,24.2,17.0,87,77,63,0.00,40.00,24,19,32,0.00
2013-3-2,44.0,38.9,31.0,27.0,25.2,21.0,81,59,45,0.00,40.00,22,13,34,0.00
2013-3-3,42.0,37.9,33.0,36.0,27.6,23.0,89,67,50,0.00,40.00,26,16,38,0.01
2013-3-4,33.0,22.2,12.0,26.0,14.8,5.0,94,74,45,0.00,40.00,19,10,26,0.12
2013-3-5,38.0,27.4,12.0,9.0,5.3,-1.0,83,43,20,0.00,40.00,22,10,31,0.00
2013-3-6,50.0,40.9,33.0,22.0,14.6,7.0,53,35,25,0.00,40.00,26,15,40,0.00
2013-3-7,49.0,39.7,29.0,26.0,20.8,16.0,82,49,26,0.00,40.00,19,9,30,0.00
2013-3-8,52.0,38.4,22.0,28.0,21.7,14.0,95,56,21,0.00,40.00,17,5,24,0.00
2013-3-9,35.0,28.0,19.0,28.0,23.1,18.0,97,82,63,0.00,40.00,24,11,32,0.09
2013-3-10,43.0,29.7,16.0,22.0,17.3,12.0,95,62,33,0.00,40.00,22,12,30,0.00
2013-3-11,44.0,34.0,27.0,31.0,20.7,15.0,97,60,40,0.00,40.00,33,18,43,0.00
2013-3-12,46.0,33.7,23.0,28.0,24.0,21.0,96,70,41,0.00,40.00,23,9,32,0.00
2013-3-13,54.0,43.2,34.0,30.0,27.0,24.0,75,54,32,0.00,40.00,27,18,40,0.00
2013-3-14,58.0,47.1,33.0,28.0,24.7,16.0,71,43,25,0.00,40.00,21,13,32,0.00
2013-3-15,61.0,51.9,44.0,26.0,21.0,16.0,46,31,17,0.00,40.00,26,14,37,0.00
2013-3-16,53.0,41.1,29.0,24.0,14.2,1.0,69,39,12,0.00,40.00,23,11,34,0.00
2013-3-17,40.0,32.8,21.0,31.0,15.8,0.0,99,52,23,0.00,40.00,47,24,63,0.18
2013-3-18,38.0,26.8,18.0,12.0,6.8,3.0,68,45,23,0.00,40.00,34,20,45,0.00
2013-3-19,43.0,30.7,16.0,13.0,-0.9,-13.0,66,31,9,0.00,40.00,29,17,40,0.00
2013-3-20,48.0,32.3,13.0,33.0,10.4,-8.0,87,44,17,0.00,40.00,28,11,38,0.08
2013-3-21,38.0,34.0,23.0,33.0,20.4,2.0,96,60,25,0.00,40.00,29,18,41,0.03
2013-3-22,31.0,21.7,15.0,13.0,7.0,-5.0,77,56,20,0.00,40.00,22,12,33,0.00
2013-3-23,19.0,15.1,11.0,13.0,10.5,6.0,94,82,63,0.00,40.00,18,14,26,0.06
2013-3-25,33.0,23.3,5.0,8.0,5.4,0.0,85,49,29,0.00,40.00,13,7,22,0.00
2013-3-26,44.0,34.6,20.0,32.0,15.1,4.0,99,46,31,0.00,40.00,22,10,29,0.06
2013-3-27,52.0,37.7,22.0,33.0,24.2,17.0,100,65,26,0.00,40.00,17,6,30,0.00
2013-3-28,57.0,41.9,24.0,27.0,20.6,17.0,79,46,22,0.00,40.00,12,5,21,0.00
2013-3-29,58.0,45.7,34.0,32.0,26.4,20.0,82,49,22,0.00,40.00,23,10,37,0.00
2013-3-30,54.0,41.6,31.0,28.0,22.6,-99.9,80,51,26,0.00,40.00,25,12,34,0.00
2013-3-31,60.0,43.1,25.0,24.0,15.5,3.0,73,40,10,0.00,40.00,24,9,32,0.00
2013-4-1,53.0,39.7,22.0,32.0,24.0,19.0,90,57,29,0.00,40.00,14,6,21,0.00
2013-4-2,48.0,38.8,31.0,36.0,29.2,25.0,88,69,44,0.00,40.00,19,8,26,0.01
2013-4-3,59.0,39.3,21.0,33.0,25.5,17.0,98,65,19,0.00,40.00,21,6,29,0.00
2013-4-4,63.0,46.8,28.0,32.0,25.5,21.0,95,51,22,0.00,40.00,17,9,32,0.00
2013-4-5,62.0,49.2,38.0,37.0,25.4,19.0,60,40,27,0.00,40.00,30,16,41,0.00
2013-4-6,54.0,42.4,29.0,33.0,25.2,20.0,83,53,25,0.00,40.00,24,14,33,0.00
2013-4-7,50.0,41.5,34.0,38.0,29.8,23.0,91,64,39,0.00,40.00,24,14,35,0.00
2013-4-8,53.0,30.6,11.0,31.0,23.2,9.0,97,77,34,0.00,40.00,32,15,44,0.47
2013-4-9,11.0,8.5,7.0,9.0,5.9,4.0,94,89,83,0.00,40.00,29,21,39,0.56
2013-4-10,33.0,19.1,7.0,26.0,11.9,5.0,93,75,41,0.00,40.00,25,7,36,0.03
2013-4-11,44.0,36.1,32.0,33.0,28.0,24.0,100,74,47,0.00,40.00,24,12,34,0.14
2013-4-12,49.0,36.9,30.0,32.0,26.4,10.0,100,71,21,0.00,40.00,15,7,23,0.00
2013-4-13,52.0,38.6,28.0,36.0,25.4,18.0,94,63,29,0.00,40.00,32,14,43,0.06
2013-4-14,36.0,29.1,20.0,25.0,8.4,-3.0,73,45,19,0.00,40.00,30,19,44,0.00
2013-4-15,30.0,25.4,22.0,23.0,19.1,8.0,96,77,38,0.00,40.00,20,11,27,0.01
2013-4-16,23.0,19.5,16.0,20.0,17.2,15.0,97,91,77,0.00,40.00,25,16,33,0.53
2013-4-17,18.0,15.9,14.0,15.0,13.6,12.0,95,90,81,0.00,40.00,19,13,27,0.28
2013-4-18,34.0,18.4,0.0,17.0,8.4,-2.0,95,70,28,0.00,40.00,17,9,22,0.00
2013-4-19,39.0,31.2,22.0,32.0,22.7,15.0,91,71,55,0.00,40.00,24,16,33,0.01
2013-4-20,45.0,37.9,34.0,36.0,32.0,29.0,89,80,62,0.00,40.00,22,13,32,0.01
2013-4-21,51.0,41.3,33.0,30.0,25.2,17.0,84,56,26,0.00,40.00,24,15,36,0.00
2013-4-22,42.0,26.4,18.0,29.0,22.1,13.0,99,85,48,0.00,40.00,22,14,32,0.38
2013-4-23,36.0,24.0,14.0,17.0,11.5,5.0,89,63,28,0.00,40.00,16,8,24,0.00
2013-4-24,47.0,34.8,19.0,18.0,11.1,1.0,90,42,15,0.00,40.00,16,8,34,0.00
2013-4-25,59.0,44.3,26.0,16.0,10.4,5.0,65,28,12,0.00,40.00,18,9,29,0.00
2013-4-26,61.0,45.2,27.0,22.0,14.3,8.0,67,33,12,0.00,40.00,11,5,18,0.00
2013-4-27,67.0,52.0,35.0,20.0,16.0,10.0,51,26,11,0.00,40.00,19,11,30,0.00
2013-4-28,68.0,56.2,44.0,33.0,22.8,16.0,62,30,15,0.00,40.00,24,15,40,0.00
2013-4-29,67.0,54.0,39.0,33.0,21.3,15.0,64,31,14,0.00,40.00,34,18,46,0.00
2013-4-30,52.0,43.7,32.0,35.0,24.6,2.0,94,51,16,0.00,40.00,22,14,37,0.01
2013-5-1,33.0,29.0,22.0,28.0,21.3,15.0,90,73,50,0.00,40.00,26,14,32,0.00
2013-5-2,48.0,32.5,15.0,17.0,10.4,-1.0,90,48,13,0.00,40.00,12,5,26,0.00
2013-5-3,59.0,44.4,25.0,26.0,12.5,8.0,65,31,14,0.00,40.00,12,5,29,0.00
2013-5-4,58.0,47.9,40.0,28.0,24.7,20.0,61,42,25,0.00,40.00,24,12,35,0.00
2013-5-5,59.0,46.7,35.0,35.0,24.5,20.0,71,44,24,0.00,40.00,19,12,27,0.00
2013-5-6,64.0,47.7,33.0,40.0,31.4,25.0,85,57,22,0.00,40.00,17,4,29,0.00
2013-5-7,61.0,49.6,43.0,41.0,35.9,29.0,87,62,31,0.00,40.00,16,7,26,0.07
2013-5-8,57.0,47.2,36.0,41.0,35.8,31.0,94,67,39,0.00,40.00,26,7,37,0.01
2013-5-9,60.0,48.3,38.0,40.0,34.5,28.0,87,62,30,0.00,40.00,20,5,28,0.00
2013-5-10,63.0,49.4,34.0,39.0,29.6,-99.9,97,56,21,0.00,40.00,16,6,30,0.00
2013-5-11,67.0,53.7,36.0,34.0,26.0,-99.9,82,41,14,0.00,40.00,21,6,34,0.00
2013-5-12,76.0,60.3,39.0,30.0,27.1,23.0,60,31,14,0.00,40.00,15,7,34,0.00
2013-5-13,81.0,65.9,47.0,35.0,29.3,23.0,57,29,12,0.00,40.00,16,9,28,0.00
2013-5-14,80.0,66.8,48.0,33.0,26.9,21.0,54,25,12,0.00,40.00,16,8,29,0.00
2013-5-15,76.0,58.0,44.0,47.0,34.7,23.0,89,46,15,0.00,40.00,18,7,29,0.18
2013-5-16,72.0,55.0,46.0,47.0,28.2,-99.9,90,57,23,0.00,40.00,32,9,44,0.04
2013-5-17,74.0,59.9,47.0,43.0,28.4,-99.9,77,41,10,0.00,40.00,22,10,36,0.00
2013-5-18,65.0,50.7,40.0,41.0,35.7,26.0,83,59,24,0.00,40.00,21,10,32,0.50
2013-5-19,53.0,45.1,40.0,43.0,37.2,34.0,93,75,50,0.00,40.00,21,13,27,0.04
2013-5-20,53.0,44.3,37.0,40.0,35.9,28.0,97,75,39,0.00,40.00,24,14,33,0.25
2013-5-21,62.0,47.8,33.0,35.0,29.6,23.0,88,53,24,0.00,40.00,16,8,24,0.00
2013-5-22,70.0,54.0,35.0,40.0,33.9,26.0,89,52,19,0.00,40.00,21,7,36,0.00
2013-5-23,79.0,63.2,45.0,42.0,26.7,13.0,82,34,9,0.00,40.00,21,10,35,0.00
2013-5-24,72.0,59.2,45.0,27.0,19.7,13.0,47,24,12,0.00,40.00,21,11,34,0.00
2013-5-25,77.0,61.6,42.0,28.0,18.4,13.0,51,22,9,0.00,40.00,24,10,37,0.00
2013-5-26,77.0,60.9,40.0,24.0,18.2,15.0,47,21,10,0.00,40.00,18,7,34,0.00
2013-5-27,71.0,58.6,42.0,30.0,21.4,15.0,48,24,14,0.00,40.00,21,11,34,0.00
2013-5-28,72.0,54.2,39.0,37.0,26.3,18.0,71,37,15,0.00,40.00,24,8,32,0.00
2013-5-29,59.0,48.4,41.0,41.0,36.4,28.0,94,66,31,0.00,40.00,24,11,33,0.06
2013-5-30,59.0,49.4,39.0,34.0,26.4,18.0,79,45,20,0.00,40.00,33,24,45,0.00
2013-5-31,61.0,49.3,39.0,32.0,25.3,19.0,66,42,20,0.00,40.00,26,18,37,0.00
2013-6-1,66.0,51.6,42.0,35.0,31.8,26.0,75,50,24,0.00,40.00,13,6,19,0.00
2013-6-2,80.0,61.7,36.0,31.0,25.4,18.0,73,32,12,0.00,40.00,27,9,42,0.00
2013-6-3,72.0,64.1,52.0,31.0,16.3,4.0,37,17,7,0.00,40.00,31,18,45,0.00
2013-6-4,71.0,54.1,36.0,36.0,24.4,18.0,68,35,15,0.00,40.00,22,10,36,0.00
2013-6-5,69.0,53.3,37.0,37.0,28.9,14.0,86,47,17,0.00,40.00,11,5,24,0.00
2013-6-6,74.0,58.6,38.0,36.0,28.6,17.0,70,36,17,0.00,40.00,23,5,33,0.00
2013-6-7,78.0,66.3,48.0,38.0,32.8,25.0,64,32,15,0.00,40.00,19,10,28,0.00
2013-6-8,76.0,63.3,53.0,46.0,34.0,26.0,77,36,18,0.00,40.00,17,9,26,0.00
2013-6-9,87.0,68.1,42.0,34.0,26.9,23.0,53,25,11,0.00,40.00,21,10,33,0.00
2013-6-10,92.0,75.4,54.0,34.0,28.5,24.0,41,19,9,0.00,40.00,27,9,38,0.00
2013-6-11,84.0,71.6,58.0,29.0,21.0,14.0,27,16,9,0.00,40.00,25,14,41,0.00
2013-6-12,86.0,69.1,47.0,31.0,24.3,15.0,49,22,9,0.00,40.00,20,8,34,0.00
2013-6-13,85.0,70.4,52.0,49.0,29.0,17.0,50,23,13,0.00,40.00,24,10,42,0.00
2013-6-14,78.0,64.2,48.0,34.0,22.5,6.0,54,24,11,0.00,40.00,24,13,32,0.00
2013-6-15,80.0,62.4,40.0,39.0,19.5,4.0,66,25,8,0.00,40.00,17,7,37,0.00
2013-6-16,80.0,64.2,46.0,35.0,23.7,11.0,43,23,11,0.00,40.00,21,7,34,0.00
2013-6-17,82.0,65.9,47.0,38.0,30.5,15.0,61,32,8,0.00,40.00,13,6,22,0.00
2013-6-18,80.0,64.6,46.0,46.0,36.9,21.0,83,42,13,0.00,40.00,20,7,34,0.00
2013-6-19,85.0,69.2,47.0,41.0,24.6,11.0,75,27,6,0.00,40.00,24,12,40,0.00
2013-6-20,76.0,55.2,44.0,22.0,17.1,14.0,29,23,9,0.00,40.00,15,7,24,0.00
2013-6-22,77.0,68.2,58.0,48.0,24.1,13.0,64,21,12,0.00,40.00,31,16,48,0.00
2013-6-23,80.0,63.0,40.0,43.0,26.2,15.0,91,36,10,0.00,40.00,17,8,27,0.00
2013-6-24,82.0,67.9,49.0,32.0,23.3,17.0,42,21,9,0.00,40.00,23,11,33,0.00
2013-6-25,77.0,67.6,53.0,41.0,34.9,30.0,58,31,20,0.00,40.00,24,15,37,0.00
2013-6-26,88.0,74.9,53.0,38.0,33.8,31.0,56,25,13,0.00,40.00,18,10,30,0.00
2013-6-27,90.0,75.2,54.0,37.0,30.8,25.0,42,22,10,0.00,40.00,14,7,26,0.00
2013-6-28,91.0,77.7,57.0,48.0,39.6,30.0,59,28,13,0.00,40.00,14,7,22,0.00
2013-6-29,87.0,73.7,58.0,50.0,44.3,33.0,69,39,15,0.00,40.00,17,8,45,0.00
2013-6-30,83.0,69.4,55.0,53.0,44.9,31.0,85,47,18,0.00,40.00,19,6,28,0.00
2013-7-1,82.0,68.5,51.0,48.0,42.6,36.0,76,43,21,0.00,40.00,16,6,26,0.00
2013-7-2,82.0,68.2,53.0,46.0,40.2,31.0,74,41,16,0.00,40.00,16,6,24,0.00
2013-7-3,83.0,67.6,51.0,55.0,40.4,31.0,73,41,17,0.00,40.00,17,6,28,0.00
2013-7-4,86.0,69.2,51.0,58.0,48.2,39.0,91,54,19,0.00,40.00,12,5,21,0.08
2013-7-5,82.0,67.0,55.0,58.0,52.1,43.0,96,65,26,0.00,40.00,21,6,38,0.01
2013-7-6,84.0,70.0,52.0,54.0,41.3,27.0,87,44,13,0.00,40.00,17,7,26,0.00
2013-7-7,86.0,70.9,55.0,54.0,42.8,29.0,90,45,14,0.00,40.00,20,8,31,0.03
2013-7-8,84.0,68.8,57.0,49.0,43.2,35.0,63,41,21,0.00,40.00,16,8,29,0.00
2013-7-9,87.0,74.2,57.0,43.0,35.4,28.0,55,28,12,0.00,40.00,17,8,30,0.00
2013-7-10,90.0,74.6,56.0,47.0,30.9,-99.9,67,26,10,0.00,40.00,15,6,26,0.00
2013-7-11,93.0,77.6,58.0,47.0,37.0,29.0,56,28,11,0.00,40.00,17,7,24,0.00
2013-7-12,80.0,70.7,58.0,56.0,50.1,45.0,89,51,30,0.00,40.00,17,10,27,0.02
2013-7-13,81.0,66.7,56.0,58.0,52.4,47.0,84,63,32,0.00,40.00,16,6,22,0.00
2013-7-15,86.0,76.1,60.0,57.0,48.0,35.0,88,42,17,0.00,40.00,19,8,29,0.00
2013-7-16,85.0,71.4,54.0,53.0,45.3,30.0,87,47,14,0.00,40.00,18,8,27,0.00
2013-7-17,88.0,69.0,55.0,52.0,45.7,33.0,81,49,15,0.00,40.00,16,5,24,0.00
2013-7-18,85.0,72.5,62.0,51.0,46.2,38.0,59,42,19,0.00,40.00,16,8,23,0.00
2013-7-19,86.0,72.8,60.0,51.0,46.9,37.0,67,43,18,0.00,40.00,17,8,26,0.00
2013-7-20,89.0,74.0,58.0,46.0,36.1,-99.9,60,30,10,0.00,40.00,12,6,20,0.00
2013-7-21,91.0,75.2,56.0,46.0,25.0,6.0,53,21,5,0.00,40.00,23,10,35,0.00
2013-7-22,91.0,73.3,55.0,30.0,-5.1,-99.9,33,12,5,0.00,40.00,19,10,30,0.00
2013-7-23,88.0,75.9,56.0,49.0,19.9,9.0,46,14,6,0.00,40.00,12,8,21,0.00
2013-7-24,88.0,72.9,57.0,53.0,46.6,30.0,75,44,13,0.00,40.00,17,6,27,0.00
2013-7-25,80.0,65.3,54.0,55.0,48.3,39.0,88,58,23,0.00,40.00,12,6,21,0.07
2013-7-26,83.0,68.6,51.0,53.0,43.7,33.0,95,49,17,0.00,40.00,18,5,35,0.00
2013-7-27,82.0,67.3,51.0,53.0,42.7,29.0,82,47,15,0.00,40.00,19,7,32,0.01
2013-7-28,81.0,65.8,57.0,54.0,46.4,25.0,91,58,13,0.00,40.00,15,6,22,0.00
2013-7-29,79.0,63.4,54.0,50.0,43.2,29.0,80,53,16,0.00,40.00,21,7,29,0.00
2013-7-30,80.0,64.3,53.0,50.0,44.4,38.0,73,52,22,0.00,40.00,22,6,34,0.00
2013-7-31,85.0,69.3,50.0,48.0,42.0,30.0,82,43,14,0.00,40.00,21,6,30,0.00
2013-8-1,87.0,67.2,53.0,49.0,43.6,33.0,72,47,15,0.00,40.00,22,8,34,0.00
2013-8-2,86.0,73.0,63.0,49.0,39.4,23.0,55,35,11,0.00,40.00,21,14,34,0.00
2013-8-3,89.0,74.7,57.0,40.0,36.0,24.0,45,26,10,0.00,40.00,17,10,26,0.00
2013-8-4,84.0,73.6,58.0,43.0,38.0,30.0,50,29,14,0.00,40.00,21,9,32,0.00
2013-8-5,85.0,73.1,61.0,43.0,35.6,25.0,47,28,11,0.00,40.00,17,9,27,0.00
2013-8-6,86.0,72.4,53.0,44.0,34.7,18.0,67,31,8,0.00,40.00,20,8,36,0.00
2013-8-7,83.0,72.7,53.0,42.0,33.7,25.0,62,27,13,0.00,40.00,14,6,20,0.00
2013-8-8,79.0,64.4,51.0,49.0,40.7,32.0,80,45,19,0.00,40.00,21,7,29,0.00
2013-8-9,79.0,62.7,51.0,45.0,39.1,32.0,65,44,19,0.00,40.00,17,5,26,0.00
2013-8-10,81.0,67.1,51.0,46.0,36.6,26.0,69,38,15,0.00,40.00,19,8,34,0.00
2013-8-11,80.0,67.2,55.0,47.0,40.3,33.0,73,40,18,0.00,40.00,13,6,24,0.00